Time;durP1;ratioP1;P1;durP2;ratioP2;P2;SDS_P1;SDS_P2;PMS_P1;PMS_P2;Temp;Humidity;BMP_temperature;BMP_pressure;BME280_temperature;BME280_humidity;BME280_pressure;Samples;Min_cycle;Max_cycle;Signal;HPM_P1;HPM_P2
2022/02/02 00:03:10;;;;;;;4.25;1.33;;;17.80;62.20;;;;;;10578079;27;20034;-49
2022/02/02 00:08:17;;;;;;;2.90;1.00;;;17.80;62.10;;;;;;10562888;28;20105;-51
2022/02/02 00:13:37;;;;;;;2.90;1.00;;;17.80;62.10;;;;;;10596418;27;20031;-52
2022/02/02 00:18:55;;;;;;;2.53;0.80;;;17.80;62.00;;;;;;10593301;27;20072;-53
2022/02/02 00:24:04;;;;;;;3.35;1.00;;;17.80;62.00;;;;;;10588056;27;20040;-52
2022/02/02 00:29:11;;;;;;;2.57;0.90;;;17.90;61.90;;;;;;10619160;27;20031;-52
2022/02/02 00:34:17;;;;;;;3.00;0.93;;;17.80;61.80;;;;;;10583504;27;20019;-51
2022/02/02 00:39:17;;;;;;;4.30;0.90;;;17.90;61.80;;;;;;10580178;27;20049;-50
2022/02/02 00:44:19;;;;;;;5.53;1.05;;;17.90;61.70;;;;;;10589531;27;20416;-53
2022/02/02 00:49:20;;;;;;;5.20;1.02;;;17.90;61.70;;;;;;10608001;27;20054;-52
2022/02/02 00:54:25;;;;;;;2.88;1.02;;;17.90;61.60;;;;;;10585097;27;20032;-50
2022/02/02 00:59:25;;;;;;;2.63;0.80;;;17.90;61.70;;;;;;10579932;27;20124;-50
2022/02/02 01:04:26;;;;;;;2.95;1.00;;;17.80;61.60;;;;;;10610546;27;20094;-51
2022/02/02 01:09:36;;;;;;;2.20;0.93;;;17.90;61.70;;;;;;10584683;27;20058;-51
2022/02/02 01:15:34;;;;;;;2.67;0.98;;;17.80;61.70;;;;;;10580946;28;20128;-51
2022/02/02 01:30:45;;;;;;;3.38;1.13;;;17.90;61.40;;;;;;10594603;28;20039;-50
2022/02/02 01:35:46;;;;;;;3.03;0.77;;;17.90;61.50;;;;;;10622152;27;20471;-52
2022/02/02 01:40:52;;;;;;;3.25;1.20;;;17.80;61.50;;;;;;10604494;27;20031;-52
2022/02/02 01:45:57;;;;;;;2.78;1.10;;;17.90;61.60;;;;;;10622054;27;20027;-48
2022/02/02 01:51:10;;;;;;;1.95;0.82;;;17.80;61.60;;;;;;10589990;27;20035;-48
2022/02/02 01:56:14;;;;;;;2.70;0.73;;;17.80;61.60;;;;;;10587005;27;20031;-48
2022/02/02 02:01:16;;;;;;;3.25;0.85;;;17.80;61.60;;;;;;10594935;27;20039;-47
2022/02/02 02:06:18;;;;;;;2.83;0.80;;;17.80;61.60;;;;;;10596246;27;20027;-52
2022/02/02 02:11:21;;;;;;;3.25;1.05;;;17.80;61.50;;;;;;10614182;27;20031;-50
2022/02/02 02:16:22;;;;;;;3.05;1.15;;;17.90;61.40;;;;;;10585172;27;20103;-52
2022/02/02 02:21:23;;;;;;;2.17;0.90;;;17.90;61.30;;;;;;10593078;28;20076;-51
2022/02/02 02:26:26;;;;;;;3.03;1.20;;;17.90;61.30;;;;;;10592710;27;20040;-53
2022/02/02 02:31:38;;;;;;;2.72;0.82;;;17.90;61.30;;;;;;10588098;27;20360;-51
2022/02/02 02:37:00;;;;;;;2.38;0.95;;;17.90;61.30;;;;;;10590759;27;20553;-49
2022/02/02 02:58:17;;;;;;;2.30;0.93;;;17.90;61.30;;;;;;10589896;27;20039;-52
2022/02/02 04:01:45;;;;;;;2.40;0.98;;;17.90;61.20;;;;;;10600058;27;20039;-47
2022/02/02 04:39:09;;;;;;;2.67;1.05;;;17.90;61.10;;;;;;10614460;27;20066;-48
2022/02/02 04:54:56;;;;;;;3.63;0.97;;;17.90;61.00;;;;;;10595308;27;20036;-51
2022/02/02 05:52:11;;;;;;;2.50;0.68;;;17.90;61.00;;;;;;10589326;28;20524;-48
2022/02/02 05:57:16;;;;;;;4.93;1.25;;;17.90;61.30;;;;;;10580600;28;20451;-52
2022/02/02 06:02:22;;;;;;;4.38;1.33;;;18.00;61.60;;;;;;10594994;28;20019;-49
2022/02/02 06:07:24;;;;;;;5.53;1.50;;;17.90;62.70;;;;;;10578672;28;20387;-47
2022/02/02 06:12:25;;;;;;;4.40;1.20;;;17.90;63.10;;;;;;10585176;28;20180;-51
2022/02/02 06:17:29;;;;;;;6.40;1.52;;;18.00;63.10;;;;;;10583873;27;20483;-52
2022/02/02 06:22:35;;;;;;;8.93;1.63;;;18.10;63.20;;;;;;10628750;27;20502;-55
2022/02/02 06:27:37;;;;;;;9.75;2.42;;;18.10;63.20;;;;;;10589331;27;20043;-54
2022/02/02 06:32:52;;;;;;;10.75;1.67;;;18.10;62.80;;;;;;10585625;27;20557;-52
2022/02/02 06:37:53;;;;;;;9.48;1.98;;;18.10;62.80;;;;;;10624304;27;20062;-54
2022/02/02 06:42:53;;;;;;;7.90;2.33;;;18.20;62.50;;;;;;10628744;27;20110;-55
2022/02/02 06:47:54;;;;;;;8.50;2.10;;;18.10;62.70;;;;;;10592834;27;20023;-52
2022/02/02 06:53:36;;;;;;;11.40;2.22;;;18.00;62.60;;;;;;10597436;27;20080;-53
2022/02/02 06:58:52;;;;;;;12.52;2.75;;;17.90;62.60;;;;;;10601009;27;20039;-54
2022/02/02 07:04:05;;;;;;;9.32;2.03;;;17.90;63.00;;;;;;10579174;27;20027;-52
2022/02/02 07:15:20;;;;;;;18.70;2.53;;;17.90;62.60;;;;;;10586661;27;20059;-56
2022/02/02 07:20:09;;;;;;;18.23;2.90;;;18.00;62.40;;;;;;10597421;27;20042;-52
2022/02/02 07:25:37;;;;;;;17.80;3.20;;;17.90;62.30;;;;;;10586838;27;20039;-50
2022/02/02 07:30:49;;;;;;;13.00;2.10;;;17.90;62.10;;;;;;10604767;27;20042;-52
2022/02/02 07:41:07;;;;;;;16.47;3.03;;;17.80;62.20;;;;;;10576315;27;20044;-56
2022/02/02 07:46:09;;;;;;;14.05;3.35;;;17.70;62.50;;;;;;10577762;28;20094;-54
2022/02/02 07:51:11;;;;;;;16.65;3.47;;;17.70;63.50;;;;;;10591307;27;20072;-53
2022/02/02 07:56:15;;;;;;;10.18;3.63;;;17.70;62.50;;;;;;10582996;27;20019;-55
2022/02/02 08:01:17;;;;;;;12.07;2.65;;;17.70;62.50;;;;;;10587338;27;20132;-53
2022/02/02 08:06:21;;;;;;;10.43;2.72;;;17.70;62.70;;;;;;10592308;27;20041;-53
2022/02/02 08:11:32;;;;;;;12.70;2.88;;;17.60;62.70;;;;;;10564673;27;20111;-49
2022/02/02 08:16:36;;;;;;;12.98;3.33;;;17.70;62.60;;;;;;10587924;27;20032;-52
2022/02/02 08:21:37;;;;;;;8.90;2.65;;;17.70;62.60;;;;;;10589140;27;20488;-49
2022/02/02 08:26:38;;;;;;;9.73;2.60;;;17.70;62.60;;;;;;10581854;27;20131;-53
2022/02/02 08:31:39;;;;;;;10.65;2.72;;;17.60;62.50;;;;;;10583207;27;20023;-54
2022/02/02 08:36:42;;;;;;;10.13;3.33;;;17.70;62.30;;;;;;10575346;27;20023;-53
2022/02/02 08:41:52;;;;;;;10.77;3.17;;;17.70;62.30;;;;;;10597775;27;20114;-53
2022/02/02 08:47:02;;;;;;;8.23;2.72;;;17.80;62.10;;;;;;10583740;27;20031;-54
2022/02/02 08:52:03;;;;;;;15.30;3.30;;;17.80;62.00;;;;;;10588100;27;20475;-57
2022/02/02 08:57:20;;;;;;;16.80;3.58;;;17.70;62.00;;;;;;10562613;27;20049;-53
2022/02/02 09:02:26;;;;;;;12.52;2.58;;;17.80;62.00;;;;;;10564598;27;20115;-54
2022/02/02 09:07:27;;;;;;;15.48;2.25;;;17.80;62.30;;;;;;10572796;27;20035;-48
2022/02/02 09:33:53;;;;;;;8.25;2.70;;;17.60;62.30;;;;;;10576565;28;20822;-50
2022/02/02 09:38:58;;;;;;;10.15;2.88;;;17.60;62.40;;;;;;10584814;28;20032;-50
2022/02/02 09:44:02;;;;;;;8.57;2.40;;;17.50;62.30;;;;;;10558907;28;20024;-50
2022/02/02 09:49:09;;;;;;;7.82;1.80;;;17.50;62.20;;;;;;10561847;28;20114;-51
2022/02/02 09:59:29;;;;;;;7.95;2.15;;;17.60;61.90;;;;;;10598946;27;20134;-50
2022/02/02 10:09:57;;;;;;;7.93;2.10;;;17.50;62.00;;;;;;10620042;27;20462;-50
2022/02/02 10:15:03;;;;;;;8.35;2.58;;;17.60;61.80;;;;;;10583109;27;20039;-48
2022/02/02 10:20:24;;;;;;;11.18;2.80;;;17.60;61.80;;;;;;10605011;27;20023;-50
2022/02/02 10:25:31;;;;;;;5.43;2.05;;;17.60;62.00;;;;;;10590493;27;20103;-50
2022/02/02 10:30:32;;;;;;;12.50;2.80;;;17.60;62.20;;;;;;10594250;27;20467;-52
2022/02/02 10:35:39;;;;;;;10.45;2.88;;;17.60;62.30;;;;;;10597759;27;20528;-48
2022/02/02 10:45:49;;;;;;;11.07;3.22;;;17.60;62.40;;;;;;10577064;27;20045;-49
2022/02/02 10:56:30;;;;;;;10.63;2.83;;;17.50;62.70;;;;;;10602393;27;20035;-48
2022/02/02 11:06:45;;;;;;;7.35;2.88;;;17.50;62.60;;;;;;10590607;27;20036;-49
2022/02/02 11:11:49;;;;;;;9.13;2.05;;;17.40;62.80;;;;;;10601224;27;20500;-48
2022/02/02 11:17:13;;;;;;;12.02;3.10;;;17.50;63.60;;;;;;10581185;27;20043;-50
2022/02/02 11:22:32;;;;;;;10.40;3.25;;;17.60;65.00;;;;;;10584448;28;20070;-50
2022/02/02 11:27:38;;;;;;;9.07;3.30;;;17.70;65.30;;;;;;10595521;27;20395;-46
2022/02/02 11:32:42;;;;;;;12.32;3.35;;;17.70;66.50;;;;;;10563611;27;20034;-51
2022/02/02 11:37:56;;;;;;;8.02;2.55;;;17.80;66.40;;;;;;10592199;27;20533;-49
2022/02/02 11:43:30;;;;;;;15.48;3.78;;;17.80;66.60;;;;;;10591572;27;20059;-51
2022/02/02 11:48:53;;;;;;;12.38;2.90;;;17.80;66.70;;;;;;10600510;27;20039;-51
2022/02/02 11:53:57;;;;;;;10.38;2.55;;;17.70;66.60;;;;;;10594490;27;20065;-47
2022/02/02 11:59:17;;;;;;;7.65;3.17;;;17.70;66.50;;;;;;10550326;28;20110;-51
2022/02/02 12:04:26;;;;;;;16.48;2.40;;;17.70;66.60;;;;;;10600969;27;20063;-52
2022/02/02 12:09:57;;;;;;;12.47;3.33;;;17.70;66.40;;;;;;10573197;27;20126;-51
2022/02/02 12:21:12;;;;;;;9.07;3.72;;;17.70;66.50;;;;;;10584269;27;20035;-53
2022/02/02 12:57:26;;;;;;;13.30;2.65;;;17.70;65.10;;;;;;10602266;27;20046;-51
2022/02/02 13:02:26;;;;;;;7.40;2.05;;;17.70;65.10;;;;;;10590362;27;20078;-47
2022/02/02 13:07:30;;;;;;;10.02;1.92;;;17.70;65.00;;;;;;10596817;27;20031;-48
2022/02/02 13:12:53;;;;;;;6.07;1.75;;;17.60;64.90;;;;;;10558741;27;20103;-49
2022/02/02 13:18:19;;;;;;;10.38;2.10;;;17.70;64.70;;;;;;10567372;27;20023;-49
2022/02/02 13:29:39;;;;;;;4.90;1.70;;;17.60;64.70;;;;;;10594370;27;20122;-48
2022/02/02 13:45:50;;;;;;;6.65;2.03;;;17.50;64.80;;;;;;10567528;28;20563;-48
2022/02/02 14:33:10;;;;;;;3.35;1.70;;;17.20;65.00;;;;;;10581472;28;20437;-46
2022/02/02 14:38:12;;;;;;;6.78;1.77;;;17.20;65.00;;;;;;10604475;27;20042;-47
2022/02/02 14:43:16;;;;;;;7.88;1.88;;;17.20;65.00;;;;;;10571250;27;20480;-48
2022/02/02 14:48:25;;;;;;;5.05;2.00;;;17.10;65.00;;;;;;10585387;27;20028;-46
2022/02/02 14:53:38;;;;;;;;;;;17.10;65.10;;;;;;10599947;27;20395;-51
2022/02/02 15:35:27;;;;;;;2.88;1.08;;;17.30;64.40;;;;;;10584332;27;20063;-49
2022/02/02 15:40:51;;;;;;;5.13;1.70;;;17.30;64.30;;;;;;10592991;27;20495;-51
2022/02/02 15:57:52;;;;;;;3.90;1.20;;;17.40;64.00;;;;;;10618665;27;20038;-53
2022/02/02 16:06:56;;;;;;;12.35;2.15;;;17.50;64.00;;;;;;10595256;27;20412;-54
2022/02/02 16:38:35;;;;;;;8.82;2.78;;;18.00;64.40;;;;;;10584427;27;20039;-53
2022/02/02 16:43:36;;;;;;;10.18;3.25;;;18.10;64.20;;;;;;10592232;27;20031;-53
2022/02/02 16:48:37;;;;;;;9.18;3.03;;;18.20;64.40;;;;;;10622491;27;20100;-53
2022/02/02 16:53:45;;;;;;;7.70;2.90;;;18.20;64.50;;;;;;10599837;27;20388;-52
2022/02/02 17:30:53;;;;;;;;;;;18.10;66.50;;;;;;10600392;28;20483;-50
2022/02/02 18:23:19;;;;;;;14.95;3.83;;;17.70;66.40;;;;;;10589993;27;20039;-50
2022/02/02 18:28:28;;;;;;;8.50;2.38;;;17.80;66.00;;;;;;10604686;27;20043;-50
2022/02/02 18:39:43;;;;;;;9.10;3.10;;;17.90;66.70;;;;;;10612380;27;20035;-53
2022/02/02 18:49:06;;;;;;;9.80;3.97;;;17.80;67.90;;;;;;10587238;27;20027;-52
2022/02/02 18:54:25;;;;;;;7.30;3.17;;;17.90;68.00;;;;;;10625441;27;20372;-52
2022/02/02 19:52:34;;;;;;;8.77;2.72;;;17.60;68.00;;;;;;10599632;27;20039;-48
2022/02/02 20:12:41;;;;;;;4.65;2.05;;;17.50;67.90;;;;;;10580529;28;20102;-46
2022/02/02 20:17:44;;;;;;;4.47;2.03;;;17.50;67.90;;;;;;10596229;27;20034;-47
2022/02/02 20:22:46;;;;;;;4.90;2.30;;;17.50;67.80;;;;;;10590794;27;20114;-48
2022/02/02 20:27:54;;;;;;;4.85;1.90;;;17.50;67.70;;;;;;10573836;27;20046;-47
2022/02/02 20:32:54;;;;;;;6.70;2.40;;;17.50;67.60;;;;;;10596660;27;20484;-49
2022/02/02 20:37:57;;;;;;;6.38;1.77;;;17.50;67.50;;;;;;10591540;27;20046;-49
2022/02/02 20:43:11;;;;;;;6.25;2.30;;;17.60;67.70;;;;;;10588234;27;20085;-48
2022/02/02 21:14:46;;;;;;;4.20;2.13;;;17.50;67.10;;;;;;10568611;27;20031;-46
2022/02/02 21:19:56;;;;;;;4.45;2.08;;;17.60;67.00;;;;;;10588736;27;20032;-46
2022/02/02 21:25:19;;;;;;;5.90;1.58;;;17.60;66.80;;;;;;10582164;27;20084;-48
2022/02/02 21:30:19;;;;;;;3.92;1.80;;;17.70;66.60;;;;;;10564705;28;20032;-51
2022/02/02 21:35:20;;;;;;;3.50;1.30;;;17.70;66.40;;;;;;10599436;28;20027;-48
2022/02/02 21:40:25;;;;;;;5.65;2.03;;;17.70;66.30;;;;;;10585264;28;20038;-49
2022/02/02 21:45:29;;;;;;;3.85;1.90;;;17.70;66.20;;;;;;10592536;27;20028;-48
2022/02/02 21:50:42;;;;;;;4.93;1.80;;;17.70;66.00;;;;;;10617231;27;20019;-49
2022/02/02 21:55:43;;;;;;;4.53;1.75;;;17.70;66.60;;;;;;10631514;27;20038;-48
2022/02/02 22:00:44;;;;;;;3.22;1.55;;;17.70;66.10;;;;;;10584180;27;20027;-46
2022/02/02 22:05:45;;;;;;;3.22;1.50;;;17.70;66.00;;;;;;10596372;27;20168;-49
2022/02/02 22:10:47;;;;;;;4.32;1.60;;;17.70;65.90;;;;;;10601435;27;20807;-47
2022/02/02 22:15:54;;;;;;;4.90;1.80;;;17.70;65.90;;;;;;10587282;28;20027;-47
2022/02/02 22:20:56;;;;;;;2.60;1.23;;;17.70;65.90;;;;;;10587120;28;20035;-46
2022/02/02 22:25:57;;;;;;;4.10;2.05;;;17.70;65.80;;;;;;10594600;27;20412;-49
2022/02/02 22:30:58;;;;;;;3.30;1.50;;;17.60;65.70;;;;;;10588524;27;20024;-47
2022/02/02 22:36:00;;;;;;;2.80;1.25;;;17.60;65.70;;;;;;10568741;28;20028;-47
2022/02/02 22:41:00;;;;;;;3.97;1.63;;;17.60;65.60;;;;;;10596139;27;20384;-49
2022/02/02 22:46:01;;;;;;;3.40;1.38;;;17.70;65.50;;;;;;10567957;28;20019;-47
2022/02/02 22:51:02;;;;;;;3.72;1.20;;;17.70;65.30;;;;;;10595955;27;20102;-51
2022/02/02 22:56:03;;;;;;;2.25;1.27;;;17.80;65.30;;;;;;10595062;27;20355;-48
2022/02/02 23:01:04;;;;;;;4.90;1.20;;;17.70;65.40;;;;;;10584455;27;20039;-49
2022/02/02 23:06:04;;;;;;;5.05;1.50;;;17.70;65.40;;;;;;10581076;27;20114;-48
2022/02/02 23:11:06;;;;;;;3.70;1.35;;;17.70;65.30;;;;;;10581908;27;20114;-50
2022/02/02 23:16:11;;;;;;;3.22;1.17;;;17.70;65.20;;;;;;10581067;27;20028;-47
2022/02/02 23:21:13;;;;;;;3.65;1.42;;;17.70;65.10;;;;;;10593543;27;20035;-46
2022/02/02 23:26:15;;;;;;;2.33;1.20;;;17.70;65.10;;;;;;10595296;27;20042;-47
2022/02/02 23:31:17;;;;;;;2.35;1.20;;;17.70;65.10;;;;;;10581780;27;20111;-46
2022/02/02 23:36:20;;;;;;;2.03;1.30;;;17.70;65.10;;;;;;10594538;27;20031;-47
2022/02/02 23:46:47;;;;;;;2.05;1.20;;;17.70;64.90;;;;;;10568283;28;20032;-47
2022/02/02 23:51:52;;;;;;;2.20;1.27;;;17.70;65.00;;;;;;10585879;27;20027;-46
2022/02/02 23:57:04;;;;;;;2.50;1.27;;;17.70;64.90;;;;;;10554401;28;20420;-48
